createdAt,value
2019-05-06T00:01:53.962Z,7.22
2019-05-06T00:04:24.772Z,6.99
2019-05-06T00:06:54.792Z,6.86
2019-05-06T00:09:24.153Z,6.97
2019-05-06T00:11:54.331Z,6.77
2019-05-06T00:14:23.708Z,6.46
2019-05-06T00:16:54.529Z,6.19
2019-05-06T00:19:24.611Z,6.23
2019-05-06T00:21:54.055Z,6.41
2019-05-06T00:24:25.017Z,6.70
2019-05-06T00:27:00.979Z,6.95
2019-05-06T00:29:30.321Z,7.05
2019-05-06T00:31:58.885Z,7.09
2019-05-06T00:34:27.429Z,7.06
2019-05-06T00:36:55.977Z,7.00
2019-05-06T00:39:26.240Z,6.96
2019-05-06T00:42:05.456Z,7.00
2019-05-06T00:44:34.630Z,7.18
2019-05-06T00:47:04.312Z,7.19
2019-05-06T00:49:34.430Z,7.19
2019-05-06T00:52:04.254Z,7.20
2019-05-06T00:54:34.034Z,7.29
2019-05-06T00:57:03.655Z,7.48
2019-05-06T00:59:34.426Z,7.48
2019-05-06T01:02:04.557Z,7.41
2019-05-06T01:04:33.876Z,7.38
2019-05-06T01:07:03.919Z,7.41
2019-05-06T01:09:34.871Z,7.45
2019-05-06T01:12:04.939Z,7.36
2019-05-06T01:14:50.376Z,7.13
2019-05-06T01:17:18.916Z,6.93
2019-05-06T01:19:47.493Z,6.83
2019-05-06T01:22:16.111Z,6.52
2019-05-06T01:24:44.766Z,6.11
2019-05-06T01:27:14.541Z,5.87
2019-05-06T01:29:44.154Z,6.07
2019-05-06T01:32:13.970Z,6.37
2019-05-06T01:34:44.541Z,6.72
2019-05-06T01:37:14.241Z,6.91
2019-05-06T01:39:47.606Z,7.11
2019-05-06T01:42:26.698Z,7.17
2019-05-06T01:44:55.318Z,7.22
2019-05-06T01:47:23.922Z,7.24
2019-05-06T01:49:53.759Z,7.19
2019-05-06T01:52:24.049Z,6.95
2019-05-06T01:54:54.275Z,6.89
2019-05-06T01:57:24.461Z,6.53
2019-05-06T01:59:53.909Z,6.20
2019-05-06T02:02:23.891Z,5.81
2019-05-06T02:04:54.006Z,5.78
2019-05-06T02:07:24.135Z,6.03
2019-05-06T02:09:54.221Z,6.34
2019-05-06T02:12:24.618Z,6.51
2019-05-06T02:14:54.303Z,6.61
2019-05-06T02:17:23.932Z,6.70
2019-05-06T02:19:54.689Z,6.68
2019-05-06T02:22:30.660Z,6.57
2019-05-06T02:25:00.848Z,6.51
2019-05-06T02:27:29.486Z,6.37
2019-05-06T02:30:08.667Z,6.31
2019-05-06T02:32:41.632Z,6.26
2019-05-06T02:35:14.326Z,6.30
2019-05-06T02:37:46.481Z,6.40
2019-05-06T02:40:24.713Z,6.15
2019-05-06T02:42:54.801Z,6.13
2019-05-06T02:45:24.414Z,6.21
2019-05-06T02:47:57.566Z,6.29
2019-05-06T02:50:46.218Z,6.30
2019-05-06T02:53:16.542Z,6.39
2019-05-06T02:55:45.138Z,6.40
2019-05-06T02:58:14.797Z,6.30
2019-05-06T03:00:43.687Z,6.20
2019-05-06T03:03:13.981Z,6.04
2019-05-06T03:05:43.984Z,5.90
2019-05-06T03:08:13.634Z,5.89
2019-05-06T03:10:44.120Z,5.96
2019-05-06T03:13:14.210Z,5.50
2019-05-06T03:15:43.669Z,5.55
2019-05-06T03:18:14.767Z,5.74
2019-05-06T03:20:59.437Z,5.94
2019-05-06T03:23:45.007Z,6.09
2019-05-06T03:26:13.886Z,6.04
2019-05-06T03:28:44.118Z,5.94
2019-05-06T03:31:16.591Z,6.04
2019-05-06T03:34:03.494Z,6.12
2019-05-06T03:36:23.865Z,6.23
2019-05-06T03:38:43.855Z,6.19
2019-05-06T03:41:13.863Z,6.06
2019-05-06T03:43:43.638Z,6.12
2019-05-06T03:46:14.425Z,6.19
2019-05-06T03:48:44.686Z,6.33
2019-05-06T03:51:13.687Z,6.31
2019-05-06T03:53:43.532Z,6.34
2019-05-06T03:56:15.474Z,6.42
2019-05-06T03:58:44.023Z,6.63
2019-05-06T04:01:13.439Z,6.63
2019-05-06T04:03:47.811Z,6.71
2019-05-06T04:06:13.850Z,6.75
2019-05-06T04:08:43.854Z,6.88
2019-05-06T04:11:15.629Z,6.86
2019-05-06T04:13:45.439Z,6.77
2019-05-06T04:16:23.092Z,6.72
2019-05-06T04:18:54.186Z,6.84
2019-05-06T04:21:34.006Z,6.84
2019-05-06T04:24:15.887Z,6.90
2019-05-06T04:26:55.897Z,6.81
2019-05-06T04:29:26.167Z,6.77
2019-05-06T04:31:55.242Z,6.69
2019-05-06T04:34:23.885Z,6.62
2019-05-06T04:36:53.388Z,6.59
2019-05-06T04:39:23.319Z,6.70
2019-05-06T04:41:53.850Z,6.81
2019-05-06T04:44:23.899Z,6.96
2019-05-06T04:46:54.424Z,7.05
2019-05-06T04:49:23.799Z,7.13
2019-05-06T04:51:54.080Z,7.06
2019-05-06T04:54:26.485Z,7.10
2019-05-06T04:56:54.030Z,7.24
2019-05-06T04:59:23.301Z,7.34
2019-05-06T05:01:53.497Z,7.03
2019-05-06T05:04:31.117Z,7.01
2019-05-06T05:06:52.829Z,7.24
2019-05-06T05:09:23.039Z,7.37
2019-05-06T05:12:02.846Z,7.52
2019-05-06T05:14:38.990Z,7.61
2019-05-06T05:17:25.827Z,7.56
2019-05-06T05:19:54.553Z,7.64
2019-05-06T05:22:23.183Z,7.76
2019-05-06T05:24:52.311Z,7.79
2019-05-06T05:27:21.956Z,7.88
2019-05-06T05:29:52.243Z,7.92
2019-05-06T05:32:22.495Z,8.05
2019-05-06T05:34:52.286Z,8.12
2019-05-06T05:37:22.832Z,7.90
2019-05-06T05:39:51.991Z,7.92
2019-05-06T05:42:22.562Z,7.84
2019-05-06T05:44:52.893Z,7.81
2019-05-06T05:47:22.080Z,7.69
2019-05-06T05:50:08.310Z,7.89
2019-05-06T05:52:36.887Z,8.07
2019-05-06T05:55:06.162Z,8.31
2019-05-06T05:57:34.884Z,8.21
2019-05-06T06:00:04.228Z,8.35
2019-05-06T06:02:33.383Z,8.39
2019-05-06T06:05:02.641Z,8.50
2019-05-06T06:07:32.746Z,8.66
2019-05-06T06:10:04.346Z,8.40
2019-05-06T06:12:32.960Z,8.19
2019-05-06T06:15:03.189Z,8.05
2019-05-06T06:17:39.422Z,7.86
2019-05-06T06:20:26.326Z,7.81
2019-05-06T06:22:56.853Z,7.62
2019-05-06T06:25:25.746Z,7.82
2019-05-06T06:27:54.351Z,8.02
2019-05-06T06:30:42.403Z,8.25
2019-05-06T06:33:12.834Z,8.36
2019-05-06T06:35:54.883Z,8.54
2019-05-06T06:38:28.057Z,8.62
2019-05-06T06:40:56.759Z,8.81
2019-05-06T06:43:27.013Z,9.16
2019-05-06T06:45:55.614Z,9.22
2019-05-06T06:48:24.239Z,9.11
2019-05-06T06:50:54.016Z,9.10
2019-05-06T06:53:22.618Z,9.19
2019-05-06T06:55:52.849Z,9.05
2019-05-06T06:58:32.598Z,9.03
2019-05-06T07:01:03.306Z,9.08
2019-05-06T07:03:33.761Z,8.97
2019-05-06T07:06:03.983Z,8.82
2019-05-06T07:08:37.401Z,8.82
2019-05-06T07:11:02.889Z,8.96
2019-05-06T07:13:32.721Z,9.08
2019-05-06T07:16:02.928Z,9.31
2019-05-06T07:18:33.184Z,9.38
2019-05-06T07:21:05.393Z,9.25
2019-05-06T07:23:35.404Z,9.23
2019-05-06T07:26:04.144Z,9.34
2019-05-06T07:28:32.901Z,9.34
2019-05-06T07:31:17.872Z,9.43
2019-05-06T07:33:33.540Z,9.26
2019-05-06T07:36:02.365Z,9.20
2019-05-06T07:38:32.560Z,9.96
2019-05-06T07:41:04.498Z,10.56
2019-05-06T07:43:53.474Z,11.13
2019-05-06T07:46:26.437Z,11.55
2019-05-06T07:48:55.058Z,12.00
2019-05-06T07:51:23.981Z,12.66
2019-05-06T07:53:52.614Z,12.97
2019-05-06T07:56:22.447Z,13.06
2019-05-06T07:58:53.037Z,13.20
2019-05-06T08:01:25.859Z,13.06
2019-05-06T08:03:53.311Z,13.12
2019-05-06T08:06:22.680Z,13.06
2019-05-06T08:08:53.650Z,13.18
2019-05-06T08:11:22.315Z,13.42
2019-05-06T08:13:52.776Z,13.58
2019-05-06T08:16:22.598Z,13.80
2019-05-06T08:18:52.399Z,13.92
2019-05-06T08:21:23.361Z,14.41
2019-05-06T08:23:53.818Z,14.79
2019-05-06T08:26:22.682Z,15.06
2019-05-06T08:28:52.674Z,15.14
2019-05-06T08:31:22.731Z,14.97
2019-05-06T08:33:52.343Z,14.92
2019-05-06T08:36:23.258Z,14.61
2019-05-06T08:39:05.927Z,15.02
2019-05-06T08:41:34.448Z,15.60
2019-05-06T08:44:03.148Z,15.55
2019-05-06T08:46:32.752Z,15.77
2019-05-06T08:49:03.008Z,15.19
2019-05-06T08:51:49.986Z,14.87
2019-05-06T08:54:22.564Z,14.84
2019-05-06T08:56:52.358Z,14.85
2019-05-06T08:59:20.928Z,14.75
2019-05-06T09:01:53.365Z,15.44
2019-05-06T09:04:22.912Z,16.22
2019-05-06T09:06:53.477Z,16.02
2019-05-06T09:09:22.600Z,15.51
2019-05-06T09:11:53.545Z,15.01
2019-05-06T09:14:23.221Z,14.54
2019-05-06T09:16:53.929Z,14.82
2019-05-06T09:19:23.309Z,14.97
2019-05-06T09:21:53.382Z,14.68
2019-05-06T09:24:23.100Z,14.33
2019-05-06T09:26:53.685Z,13.97
2019-05-06T09:29:26.566Z,13.74
2019-05-06T09:32:05.527Z,13.63
2019-05-06T09:34:35.678Z,13.96
2019-05-06T09:37:17.822Z,14.42
2019-05-06T09:39:46.573Z,14.25
2019-05-06T09:42:16.109Z,14.05
2019-05-06T09:44:45.825Z,13.83
2019-05-06T09:47:19.283Z,13.66
2019-05-06T09:49:48.984Z,13.63
2019-05-06T09:52:17.565Z,13.33
2019-05-06T09:54:59.583Z,12.93
2019-05-06T09:57:32.904Z,12.73
2019-05-06T10:00:04.604Z,12.28
2019-05-06T10:02:32.627Z,11.95
2019-05-06T10:05:03.602Z,11.52
2019-05-06T10:07:33.767Z,11.34
2019-05-06T10:10:02.112Z,11.38
2019-05-06T10:12:32.736Z,11.52
2019-05-06T10:15:03.162Z,11.90
2019-05-06T10:17:31.242Z,11.84
2019-05-06T10:20:02.591Z,11.77
2019-05-06T10:22:32.294Z,11.57
2019-05-06T10:25:03.379Z,11.80
2019-05-06T10:27:31.030Z,11.61
2019-05-06T10:30:04.020Z,11.71
2019-05-06T10:32:43.354Z,11.80
2019-05-06T10:35:13.111Z,11.76
2019-05-06T10:37:47.590Z,11.76
2019-05-06T10:40:32.869Z,11.75
2019-05-06T10:43:06.959Z,11.83
2019-05-06T10:45:35.651Z,11.96
2019-05-06T10:48:04.302Z,11.98
2019-05-06T10:50:34.552Z,12.07
2019-05-06T10:53:08.321Z,11.96
2019-05-06T10:55:38.550Z,11.40
2019-05-06T10:58:07.182Z,11.02
2019-05-06T11:00:36.336Z,10.69
2019-05-06T11:03:09.307Z,10.63
2019-05-06T11:05:38.021Z,10.67
2019-05-06T11:08:06.648Z,10.81
2019-05-06T11:10:40.972Z,11.02
2019-05-06T11:13:06.441Z,11.48
2019-05-06T11:15:35.126Z,11.75
2019-05-06T11:18:04.826Z,12.11
2019-05-06T11:20:33.711Z,12.42
2019-05-06T11:23:02.391Z,12.82
2019-05-06T11:25:32.296Z,12.94
2019-05-06T11:28:02.943Z,12.69
2019-05-06T11:30:39.296Z,12.53
2019-05-06T11:33:09.982Z,12.29
2019-05-06T11:35:56.443Z,12.38
2019-05-06T11:38:25.611Z,12.22
2019-05-06T11:40:54.241Z,12.03
2019-05-06T11:43:22.955Z,11.89
2019-05-06T11:45:52.175Z,11.92
2019-05-06T11:48:22.219Z,12.07
2019-05-06T11:50:52.704Z,12.21
2019-05-06T11:53:23.102Z,12.38
2019-05-06T11:55:54.439Z,12.80
2019-05-06T11:58:39.386Z,13.39
2019-05-06T12:01:09.657Z,13.82
2019-05-06T12:03:38.199Z,13.74
2019-05-06T12:06:06.823Z,13.63
2019-05-06T12:08:35.304Z,13.42
2019-05-06T12:11:03.887Z,13.40
2019-05-06T12:13:33.730Z,13.52
2019-05-06T12:16:02.603Z,13.56
2019-05-06T12:18:31.463Z,13.68
2019-05-06T12:21:11.025Z,13.48
2019-05-06T12:23:34.907Z,13.77
2019-05-06T12:26:02.417Z,13.73
2019-05-06T12:28:32.691Z,13.75
2019-05-06T12:31:01.508Z,13.87
2019-05-06T12:33:33.002Z,14.14
2019-05-06T12:36:03.299Z,14.52
2019-05-06T12:38:33.559Z,14.32
2019-05-06T12:41:03.300Z,14.21
2019-05-06T12:43:33.805Z,14.29
2019-05-06T12:46:04.030Z,14.19
2019-05-06T12:48:44.037Z,14.05
2019-05-06T12:51:12.822Z,13.89
2019-05-06T12:53:42.811Z,13.97
2019-05-06T12:56:12.403Z,14.16
2019-05-06T12:58:44.003Z,14.34
2019-05-06T13:01:13.719Z,14.34
2019-05-06T13:03:43.247Z,14.32
2019-05-06T13:06:12.963Z,14.57
2019-05-06T13:08:56.689Z,14.80
2019-05-06T13:11:13.198Z,15.09
2019-05-06T13:13:53.970Z,14.75
2019-05-06T13:16:12.690Z,14.33
2019-05-06T13:18:47.023Z,14.18
2019-05-06T13:21:12.700Z,14.15
2019-05-06T13:23:43.155Z,14.10
2019-05-06T13:26:12.833Z,14.28
2019-05-06T13:28:43.345Z,14.20
2019-05-06T13:31:19.905Z,14.02
2019-05-06T13:33:50.450Z,13.78
2019-05-06T13:36:19.224Z,13.82
2019-05-06T13:38:47.790Z,13.90
2019-05-06T13:41:16.412Z,14.10
2019-05-06T13:43:49.281Z,14.31
2019-05-06T13:46:19.455Z,14.37
2019-05-06T13:48:57.514Z,14.13
2019-05-06T13:51:34.024Z,13.71
2019-05-06T13:54:02.766Z,13.33
2019-05-06T13:56:33.118Z,13.06
2019-05-06T13:59:04.208Z,12.80
2019-05-06T14:01:36.573Z,12.60
2019-05-06T14:04:05.252Z,12.36
2019-05-06T14:06:33.881Z,12.24
2019-05-06T14:09:02.646Z,12.23
2019-05-06T14:11:32.440Z,12.31
2019-05-06T14:14:02.898Z,12.37
2019-05-06T14:16:33.390Z,12.51
2019-05-06T14:19:03.975Z,12.77
2019-05-06T14:21:32.498Z,13.02
2019-05-06T14:24:02.535Z,12.92
2019-05-06T14:26:58.106Z,12.80
2019-05-06T14:29:23.463Z,12.63
2019-05-06T14:31:53.728Z,12.42
2019-05-06T14:34:22.986Z,12.25
2019-05-06T14:36:53.343Z,12.47
2019-05-06T14:39:24.044Z,12.66
2019-05-06T14:41:54.315Z,12.71
2019-05-06T14:44:23.431Z,12.82
2019-05-06T14:46:59.487Z,12.93
2019-05-06T14:49:28.098Z,12.62
2019-05-06T14:51:56.657Z,12.72
2019-05-06T14:54:25.245Z,12.78
2019-05-06T14:57:04.562Z,12.91
2019-05-06T14:59:33.203Z,12.81
2019-05-06T15:02:02.596Z,12.75
2019-05-06T15:04:32.525Z,12.55
2019-05-06T15:07:02.184Z,12.19
2019-05-06T15:09:32.926Z,11.69
2019-05-06T15:12:02.326Z,11.53
2019-05-06T15:14:33.161Z,11.29
2019-05-06T15:17:02.334Z,11.22
2019-05-06T15:19:31.006Z,11.26
2019-05-06T15:22:02.242Z,11.24
2019-05-06T15:24:31.137Z,11.14
2019-05-06T15:26:59.784Z,11.19
2019-05-06T15:29:28.424Z,11.38
2019-05-06T15:32:12.994Z,11.53
2019-05-06T15:34:55.590Z,11.43
2019-05-06T15:37:27.213Z,11.28
2019-05-06T15:39:55.801Z,10.97
2019-05-06T15:42:24.454Z,10.81
2019-05-06T15:44:53.044Z,10.71
2019-05-06T15:47:22.673Z,10.63
2019-05-06T15:49:52.640Z,10.69
2019-05-06T15:52:23.433Z,10.71
2019-05-06T15:54:52.578Z,10.65
2019-05-06T15:57:22.911Z,10.67
2019-05-06T15:59:52.993Z,10.65
2019-05-06T16:02:23.328Z,10.67
2019-05-06T16:04:52.178Z,10.73
2019-05-06T16:07:25.241Z,10.75
2019-05-06T16:09:55.052Z,10.75
2019-05-06T16:12:22.656Z,10.75
2019-05-06T16:14:53.063Z,10.68
2019-05-06T16:17:23.773Z,10.52
2019-05-06T16:19:52.084Z,10.50
2019-05-06T16:22:22.586Z,10.54
2019-05-06T16:24:53.455Z,10.50
2019-05-06T16:27:22.953Z,10.60
2019-05-06T16:29:52.957Z,10.66
2019-05-06T16:32:22.048Z,10.70
2019-05-06T16:34:52.456Z,10.84
2019-05-06T16:37:22.349Z,10.91
2019-05-06T16:39:54.166Z,11.02
2019-05-06T16:42:22.549Z,11.06
2019-05-06T16:44:52.635Z,11.00
2019-05-06T16:47:37.114Z,10.87
2019-05-06T16:50:13.013Z,10.95
2019-05-06T16:52:44.803Z,11.03
2019-05-06T16:55:14.311Z,11.02
2019-05-06T16:57:44.477Z,11.13
2019-05-06T17:00:16.176Z,11.01
2019-05-06T17:02:57.048Z,10.95
2019-05-06T17:05:22.424Z,10.97
2019-05-06T17:07:53.222Z,10.92
2019-05-06T17:10:22.765Z,10.93
2019-05-06T17:12:53.678Z,10.95
2019-05-06T17:15:23.013Z,11.00
2019-05-06T17:17:53.173Z,11.09
2019-05-06T17:20:22.803Z,11.13
2019-05-06T17:22:53.186Z,11.11
2019-05-06T17:25:22.470Z,10.98
2019-05-06T17:27:52.652Z,10.86
2019-05-06T17:30:33.266Z,10.84
2019-05-06T17:33:19.908Z,10.73
2019-05-06T17:35:48.499Z,10.54
2019-05-06T17:38:18.783Z,10.51
2019-05-06T17:40:47.288Z,10.51
2019-05-06T17:43:15.928Z,10.41
2019-05-06T17:45:58.485Z,10.40
2019-05-06T17:48:27.914Z,10.54
2019-05-06T17:51:14.037Z,10.64
2019-05-06T17:53:44.463Z,10.81
2019-05-06T17:56:13.053Z,10.60
2019-05-06T17:58:42.320Z,10.50
2019-05-06T18:01:12.638Z,10.45
2019-05-06T18:03:41.351Z,10.18
2019-05-06T18:06:13.844Z,10.12
2019-05-06T18:08:43.029Z,10.09
2019-05-06T18:11:12.769Z,9.97
2019-05-06T18:13:41.182Z,10.10
2019-05-06T18:16:09.855Z,10.17
2019-05-06T18:18:38.474Z,10.22
2019-05-06T18:21:07.110Z,10.15
2019-05-06T18:23:35.834Z,10.20
2019-05-06T18:26:04.441Z,10.41
2019-05-06T18:28:33.052Z,10.51
2019-05-06T18:31:03.055Z,10.28
2019-05-06T18:33:32.706Z,10.08
2019-05-06T18:36:02.550Z,10.03
2019-05-06T18:38:33.478Z,10.02
2019-05-06T18:41:02.140Z,9.95
2019-05-06T18:43:33.216Z,9.85
2019-05-06T18:46:02.834Z,9.77
2019-05-06T18:48:35.108Z,9.78
2019-05-06T18:51:03.034Z,9.80
2019-05-06T18:53:33.096Z,9.74
2019-05-06T18:56:03.156Z,9.86
2019-05-06T18:58:32.442Z,9.92
2019-05-06T19:01:00.930Z,10.07
2019-05-06T19:03:32.044Z,10.14
2019-05-06T19:06:02.331Z,10.00
2019-05-06T19:08:38.649Z,9.98
2019-05-06T19:11:08.903Z,9.75
2019-05-06T19:13:37.487Z,9.60
2019-05-06T19:16:06.305Z,9.54
2019-05-06T19:18:34.709Z,9.47
2019-05-06T19:21:03.308Z,9.55
2019-05-06T19:23:32.545Z,9.58
2019-05-06T19:26:02.944Z,9.63
2019-05-06T19:28:32.813Z,9.70
2019-05-06T19:31:03.080Z,9.52
2019-05-06T19:33:34.722Z,9.52
2019-05-06T19:36:03.164Z,9.58
2019-05-06T19:38:32.982Z,9.82
2019-05-06T19:41:05.634Z,9.75
2019-05-06T19:43:32.919Z,9.71
2019-05-06T19:46:02.603Z,9.62
2019-05-06T19:48:32.797Z,9.55
2019-05-06T19:51:03.062Z,9.48
2019-05-06T19:53:32.274Z,9.40
2019-05-06T19:56:02.802Z,9.45
2019-05-06T19:58:31.693Z,9.42
2019-05-06T20:01:02.343Z,9.50
2019-05-06T20:03:32.695Z,9.59
2019-05-06T20:06:19.193Z,9.59
2019-05-06T20:08:52.907Z,9.65
2019-05-06T20:11:24.051Z,9.85
2019-05-06T20:13:52.715Z,10.12
2019-05-06T20:16:23.001Z,10.01
2019-05-06T20:18:52.670Z,9.61
2019-05-06T20:21:23.044Z,9.54
2019-05-06T20:23:52.720Z,9.26
2019-05-06T20:26:21.957Z,9.14
2019-05-06T20:28:52.606Z,9.15
2019-05-06T20:31:22.613Z,9.17
2019-05-06T20:33:52.810Z,9.28
2019-05-06T20:36:22.728Z,9.37
2019-05-06T20:38:51.351Z,9.20
2019-05-06T20:41:22.025Z,9.30
2019-05-06T20:43:50.322Z,9.42
2019-05-06T20:46:18.859Z,9.58
2019-05-06T20:48:47.559Z,10.01
2019-05-06T20:51:16.236Z,9.72
2019-05-06T20:53:44.837Z,9.50
2019-05-06T20:56:13.394Z,9.41
2019-05-06T20:58:42.169Z,9.35
2019-05-06T21:01:10.701Z,9.28
2019-05-06T21:03:39.236Z,9.14
2019-05-06T21:06:07.831Z,9.17
2019-05-06T21:08:36.529Z,9.25
2019-05-06T21:11:05.187Z,9.50
2019-05-06T21:13:35.608Z,9.63
2019-05-06T21:16:04.043Z,9.71
2019-05-06T21:18:32.650Z,9.75
2019-05-06T21:21:02.063Z,9.87
2019-05-06T21:23:32.147Z,10.03
2019-05-06T21:26:03.133Z,10.15
2019-05-06T21:28:31.177Z,9.90
2019-05-06T21:30:59.793Z,9.72
2019-05-06T21:33:28.360Z,9.41
2019-05-06T21:35:56.971Z,9.20
2019-05-06T21:38:25.517Z,9.12
2019-05-06T21:40:54.074Z,8.86
2019-05-06T21:43:22.886Z,8.85
2019-05-06T21:45:51.393Z,9.04
2019-05-06T21:48:22.104Z,9.05
2019-05-06T21:50:52.248Z,9.35
2019-05-06T21:53:22.896Z,9.58
2019-05-06T21:55:52.547Z,9.72
2019-05-06T21:58:23.183Z,9.89
2019-05-06T22:01:02.449Z,9.99
2019-05-06T22:03:32.717Z,9.83
2019-05-06T22:06:02.314Z,9.69
2019-05-06T22:08:32.830Z,9.35
2019-05-06T22:11:02.984Z,9.24
2019-05-06T22:13:33.264Z,9.13
2019-05-06T22:16:04.667Z,9.31
2019-05-06T22:18:32.505Z,9.55
2019-05-06T22:21:03.026Z,9.77
2019-05-06T22:23:49.709Z,10.03
2019-05-06T22:26:18.387Z,10.07
2019-05-06T22:28:47.278Z,10.04
2019-05-06T22:31:15.930Z,9.96
2019-05-06T22:33:44.499Z,9.98
2019-05-06T22:36:13.339Z,10.06
2019-05-06T22:38:44.163Z,9.92
2019-05-06T22:41:12.573Z,9.68
2019-05-06T22:43:42.368Z,9.25
2019-05-06T22:46:12.360Z,9.34
2019-05-06T22:48:43.266Z,9.67
2019-05-06T22:51:12.339Z,9.76
2019-05-06T22:53:42.493Z,9.83
2019-05-06T22:56:12.959Z,9.92
2019-05-06T22:58:42.750Z,10.11
2019-05-06T23:01:32.463Z,10.20
2019-05-06T23:04:02.051Z,10.32
2019-05-06T23:06:32.754Z,10.36
2019-05-06T23:09:02.554Z,10.37
2019-05-06T23:11:32.872Z,10.41
2019-05-06T23:14:02.749Z,10.29
2019-05-06T23:16:32.870Z,10.27
2019-05-06T23:19:02.179Z,10.18
2019-05-06T23:21:33.490Z,9.98
2019-05-06T23:24:02.110Z,9.61
2019-05-06T23:26:30.792Z,9.68
2019-05-06T23:28:59.377Z,9.90
2019-05-06T23:34:09.033Z,10.13
2019-05-06T23:36:57.439Z,10.20
2019-05-06T23:40:04.286Z,10.37
2019-05-06T23:43:09.889Z,10.30
2019-05-06T23:46:14.984Z,10.17
2019-05-06T23:49:22.202Z,9.96
2019-05-06T23:52:26.529Z,9.72
2019-05-06T23:55:32.199Z,9.39
2019-05-06T23:57:59.492Z,9.39
